createdAt,value
2022-09-05T00:00:05.128Z,99.90
2022-09-05T00:03:07.821Z,99.90
2022-09-05T00:06:02.427Z,99.90
2022-09-05T00:08:40.875Z,99.90
2022-09-05T00:11:41.498Z,99.90
2022-09-05T00:15:15.395Z,99.90
2022-09-05T00:17:22.158Z,99.90
2022-09-05T00:24:18.846Z,99.90
2022-09-05T00:24:27.842Z,99.90
2022-09-05T00:26:17.179Z,99.90
2022-09-05T00:28:52.181Z,99.90
2022-09-05T00:31:56.087Z,99.90
2022-09-05T00:34:48.063Z,99.90
2022-09-05T00:37:31.982Z,99.90
2022-09-05T00:40:18.616Z,99.90
2022-09-05T00:42:50.671Z,99.90
2022-09-05T00:45:27.356Z,99.90
2022-09-05T00:48:04.799Z,99.90
2022-09-05T00:50:42.060Z,99.90
2022-09-05T00:53:17.754Z,99.90
2022-09-05T00:55:57.879Z,99.90
2022-09-05T00:59:09.818Z,99.90
2022-09-05T01:01:45.386Z,99.90
2022-09-05T01:04:28.569Z,99.90
2022-09-05T01:07:09.726Z,99.90
2022-09-05T01:09:52.438Z,99.90
2022-09-05T01:12:34.973Z,99.90
2022-09-05T01:15:18.572Z,99.90
2022-09-05T01:18:13.033Z,99.90
2022-09-05T01:20:57.180Z,99.90
2022-09-05T01:23:50.617Z,99.90
2022-09-05T01:26:57.544Z,99.90
2022-09-05T01:29:35.696Z,99.90
2022-09-05T01:32:18.184Z,99.90
2022-09-05T01:35:01.238Z,99.90
2022-09-05T01:37:39.319Z,99.90
2022-09-05T01:40:20.559Z,99.90
2022-09-05T01:43:06.258Z,99.90
2022-09-05T01:45:50.628Z,99.90
2022-09-05T01:48:35.265Z,99.90
2022-09-05T01:51:28.783Z,99.90
2022-09-05T01:54:14.123Z,99.90
2022-09-05T01:57:03.277Z,99.90
2022-09-05T01:59:40.894Z,99.90
2022-09-05T02:02:24.782Z,99.90
2022-09-05T02:05:47.336Z,99.90
2022-09-05T02:08:35.025Z,99.90
2022-09-05T02:11:06.987Z,99.90
2022-09-05T02:13:51.196Z,99.90
2022-09-05T02:16:24.932Z,99.90
2022-09-05T02:19:01.368Z,99.90
2022-09-05T02:21:55.589Z,99.90
2022-09-05T02:24:28.689Z,99.90
2022-09-05T02:27:31.678Z,99.90
2022-09-05T02:30:17.804Z,99.90
2022-09-05T02:32:56.445Z,99.90
2022-09-05T02:35:32.125Z,99.90
2022-09-05T02:40:18.997Z,99.90
2022-09-05T02:45:03.377Z,99.90
2022-09-05T02:45:10.683Z,99.90
2022-09-05T02:46:52.089Z,99.90
2022-09-05T02:52:21.268Z,99.90
2022-09-05T02:57:25.547Z,99.90
2022-09-05T02:57:37.039Z,99.90
2022-09-05T02:58:47.829Z,99.90
2022-09-05T03:01:29.221Z,99.90
2022-09-05T03:04:07.711Z,99.90
2022-09-05T03:06:41.083Z,99.90
2022-09-05T03:09:25.148Z,99.90
2022-09-05T03:12:29.920Z,99.90
2022-09-05T03:15:43.212Z,99.90
2022-09-05T03:18:44.387Z,99.90
2022-09-05T03:22:08.641Z,99.90
2022-09-05T03:25:20.930Z,99.90
2022-09-05T03:28:17.234Z,99.90
2022-09-05T03:31:04.718Z,99.90
2022-09-05T03:34:11.794Z,99.90
2022-09-05T03:37:11.234Z,99.90
2022-09-05T03:40:16.803Z,99.90
2022-09-05T03:43:12.577Z,99.90
2022-09-05T03:46:08.101Z,99.90
2022-09-05T03:49:38.892Z,99.90
2022-09-05T03:57:05.156Z,99.90
2022-09-05T03:57:28.079Z,99.90
2022-09-05T03:58:55.988Z,99.90
2022-09-05T04:03:04.150Z,99.90
2022-09-05T04:08:13.920Z,99.90
2022-09-05T04:08:28.658Z,99.90
2022-09-05T04:10:21.990Z,99.90
2022-09-05T04:12:56.446Z,99.90
2022-09-05T04:15:36.395Z,99.90
2022-09-05T04:18:12.901Z,99.90
2022-09-05T04:20:48.851Z,99.90
2022-09-05T04:23:29.736Z,99.90
2022-09-05T04:26:12.341Z,99.90
2022-09-05T04:28:55.853Z,99.90
2022-09-05T04:31:39.418Z,99.90
2022-09-05T04:34:26.481Z,99.90
2022-09-05T04:37:02.794Z,99.90
2022-09-05T04:39:32.173Z,99.90
2022-09-05T04:42:13.232Z,99.90
2022-09-05T04:44:46.888Z,99.90
2022-09-05T04:47:21.117Z,99.90
2022-09-05T04:49:55.392Z,99.90
2022-09-05T04:52:49.550Z,99.90
2022-09-05T04:55:21.839Z,99.90
2022-09-05T04:57:54.701Z,99.90
2022-09-05T05:01:57.338Z,99.90
2022-09-05T05:06:11.903Z,99.90
2022-09-05T05:06:37.994Z,99.90
2022-09-05T05:09:21.745Z,99.90
2022-09-05T05:17:54.277Z,99.90
2022-09-05T05:18:01.366Z,99.90
2022-09-05T05:18:09.962Z,99.90
2022-09-05T05:20:40.497Z,99.90
2022-09-05T05:23:14.605Z,99.90
2022-09-05T05:25:49.349Z,99.90
2022-09-05T05:28:25.859Z,99.90
2022-09-05T05:31:01.113Z,99.90
2022-09-05T05:33:35.343Z,99.90
2022-09-05T05:36:09.590Z,99.90
2022-09-05T05:38:45.486Z,99.90
2022-09-05T05:41:19.951Z,99.90
2022-09-05T05:43:49.850Z,99.90
2022-09-05T05:46:29.610Z,99.90
2022-09-05T05:49:14.517Z,99.90
2022-09-05T05:52:01.176Z,99.90
2022-09-05T05:54:38.104Z,99.90
2022-09-05T05:57:43.039Z,99.90
2022-09-05T06:00:24.573Z,99.90
2022-09-05T06:03:36.337Z,99.90
2022-09-05T06:06:21.593Z,99.90
2022-09-05T06:14:48.099Z,99.90
2022-09-05T06:14:59.174Z,99.90
2022-09-05T06:16:11.624Z,99.90
2022-09-05T06:19:08.100Z,99.90
2022-09-05T06:22:08.554Z,99.90
2022-09-05T06:25:27.233Z,99.90
2022-09-05T06:28:18.670Z,99.90
2022-09-05T06:30:59.279Z,99.90
2022-09-05T06:33:58.213Z,99.90
2022-09-05T06:36:43.848Z,99.90
2022-09-05T06:39:18.440Z,99.90
2022-09-05T06:42:28.673Z,99.90
2022-09-05T06:45:27.276Z,99.90
2022-09-05T06:48:04.797Z,99.90
2022-09-05T06:51:07.116Z,99.90
2022-09-05T06:54:05.148Z,99.90
2022-09-05T06:56:48.127Z,99.90
2022-09-05T06:59:52.642Z,99.90
2022-09-05T07:02:58.300Z,99.90
2022-09-05T07:05:39.763Z,99.90
2022-09-05T07:08:35.125Z,99.90
2022-09-05T07:11:16.031Z,99.90
2022-09-05T07:13:57.186Z,99.90
2022-09-05T07:16:38.988Z,99.90
2022-09-05T07:19:25.833Z,99.70
2022-09-05T07:22:47.599Z,99.20
2022-09-05T07:25:18.330Z,97.90
2022-09-05T07:28:26.235Z,96.50
2022-09-05T07:30:49.841Z,96.70
2022-09-05T07:33:25.919Z,94.60
2022-09-05T07:35:55.690Z,93.40
2022-09-05T07:38:45.600Z,92.40
2022-09-05T07:41:22.722Z,90.70
2022-09-05T07:43:56.100Z,87.50
2022-09-05T07:46:27.854Z,85.40
2022-09-05T07:49:04.242Z,83.50
2022-09-05T07:56:55.289Z,83.30
2022-09-05T07:56:58.901Z,83.00
2022-09-05T07:57:31.137Z,79.20
2022-09-05T08:00:07.186Z,78.20
2022-09-05T08:02:46.982Z,76.80
2022-09-05T08:05:34.574Z,75.50
2022-09-05T08:08:08.723Z,75.50
2022-09-05T08:11:22.018Z,75.30
2022-09-05T08:13:48.152Z,72.30
2022-09-05T08:16:19.662Z,69.70
2022-09-05T08:18:51.366Z,69.20
2022-09-05T08:21:27.358Z,67.70
2022-09-05T08:24:05.565Z,67.70
2022-09-05T08:26:47.327Z,65.90
2022-09-05T08:29:27.384Z,64.60
2022-09-05T08:32:02.509Z,65.20
2022-09-05T08:34:45.158Z,65.80
2022-09-05T08:37:21.554Z,65.30
2022-09-05T08:40:10.233Z,65.00
2022-09-05T08:43:28.129Z,64.00
2022-09-05T08:46:47.585Z,62.80
2022-09-05T08:48:51.140Z,62.90
2022-09-05T08:51:30.667Z,61.30
2022-09-05T08:54:17.760Z,59.70
2022-09-05T08:56:55.536Z,59.70
2022-09-05T09:00:06.308Z,60.30
2022-09-05T09:03:04.317Z,57.60
2022-09-05T09:06:15.627Z,57.30
2022-09-05T09:09:14.853Z,57.50
2022-09-05T09:11:50.942Z,58.60
2022-09-05T09:14:40.149Z,55.90
2022-09-05T09:17:26.163Z,56.20
2022-09-05T09:20:12.925Z,57.40
2022-09-05T09:22:45.672Z,53.10
2022-09-05T09:25:25.125Z,56.20
2022-09-05T09:28:49.352Z,55.20
2022-09-05T09:31:36.264Z,56.30
2022-09-05T09:34:22.973Z,55.00
2022-09-05T09:37:27.608Z,53.60
2022-09-05T09:41:02.692Z,54.40
2022-09-05T09:43:53.877Z,56.10
2022-09-05T09:46:33.386Z,56.60
2022-09-05T09:49:31.428Z,56.90
2022-09-05T09:52:20.734Z,54.40
2022-09-05T09:55:38.999Z,57.20
2022-09-05T09:58:32.570Z,54.90
2022-09-05T10:01:22.886Z,56.50
2022-09-05T10:10:19.213Z,56.30
2022-09-05T10:10:55.201Z,56.30
2022-09-05T10:11:24.563Z,53.90
2022-09-05T10:14:49.620Z,54.10
2022-09-05T10:17:21.318Z,54.30
2022-09-05T10:20:29.418Z,55.20
2022-09-05T10:23:24.044Z,56.10
2022-09-05T10:26:22.464Z,56.40
2022-09-05T10:29:35.143Z,58.70
2022-09-05T10:34:26.847Z,56.50
2022-09-05T10:35:18.208Z,56.00
2022-09-05T10:37:46.398Z,55.80
2022-09-05T10:40:17.703Z,57.90
2022-09-05T10:42:59.790Z,57.70
2022-09-05T10:45:39.660Z,57.80
2022-09-05T10:48:14.250Z,58.10
2022-09-05T10:50:47.203Z,56.40
2022-09-05T10:53:42.757Z,57.30
2022-09-05T10:56:15.314Z,58.40
2022-09-05T11:01:10.333Z,58.10
2022-09-05T11:02:28.441Z,57.90
2022-09-05T11:04:52.126Z,57.70
2022-09-05T11:07:29.532Z,56.80
2022-09-05T11:10:08.122Z,57.30
2022-09-05T11:13:05.590Z,56.50
2022-09-05T11:15:45.848Z,56.80
2022-09-05T11:18:56.228Z,56.80
2022-09-05T11:21:32.838Z,55.90
2022-09-05T11:24:12.028Z,56.20
2022-09-05T11:26:46.295Z,56.60
2022-09-05T11:29:25.276Z,56.80
2022-09-05T11:38:26.864Z,57.10
2022-09-05T11:39:55.254Z,57.50
2022-09-05T11:40:06.814Z,57.70
2022-09-05T11:41:48.132Z,56.80
2022-09-05T11:44:27.311Z,56.10
2022-09-05T11:47:29.729Z,54.40
2022-09-05T11:50:38.170Z,53.60
2022-09-05T11:53:39.878Z,53.30
2022-09-05T11:56:45.975Z,53.20
2022-09-05T11:59:50.132Z,52.20
2022-09-05T12:03:05.841Z,52.00
2022-09-05T12:06:08.461Z,48.60
2022-09-05T12:08:41.501Z,47.50
2022-09-05T12:11:22.745Z,46.80
2022-09-05T12:13:58.769Z,45.40
2022-09-05T12:16:46.830Z,46.40
2022-09-05T12:19:34.811Z,47.20
2022-09-05T12:22:23.545Z,47.90
2022-09-05T12:25:27.207Z,47.50
2022-09-05T12:29:09.639Z,47.90
2022-09-05T12:32:31.046Z,47.40
2022-09-05T12:36:12.451Z,46.10
2022-09-05T12:40:56.523Z,47.40
2022-09-05T12:42:10.252Z,48.10
2022-09-05T12:42:56.399Z,48.80
2022-09-05T12:45:47.653Z,50.00
2022-09-05T12:48:26.341Z,49.30
2022-09-05T12:51:45.035Z,49.30
2022-09-05T12:54:03.961Z,48.80
2022-09-05T13:00:12.351Z,49.20
2022-09-05T13:03:09.578Z,49.00
2022-09-05T13:03:12.329Z,48.70
2022-09-05T13:05:46.216Z,52.20
2022-09-05T13:08:21.000Z,48.20
2022-09-05T13:14:47.307Z,45.80
2022-09-05T13:14:57.073Z,44.20
2022-09-05T13:16:41.245Z,43.60
2022-09-05T13:19:30.848Z,43.50
2022-09-05T13:22:01.569Z,44.60
2022-09-05T13:24:35.439Z,43.00
2022-09-05T13:27:13.708Z,42.90
2022-09-05T13:31:40.647Z,42.00
2022-09-05T13:38:01.126Z,43.20
2022-09-05T13:38:04.297Z,44.20
2022-09-05T13:38:50.047Z,41.90
2022-09-05T13:41:28.390Z,42.90
2022-09-05T13:44:00.601Z,42.60
2022-09-05T13:46:58.158Z,42.20
2022-09-05T13:49:32.265Z,43.30
2022-09-05T13:52:14.154Z,42.50
2022-09-05T13:54:50.848Z,40.50
2022-09-05T13:57:33.166Z,40.20
2022-09-05T14:00:39.374Z,40.40
2022-09-05T14:03:39.183Z,41.30
2022-09-05T14:06:45.203Z,40.70
2022-09-05T14:09:35.761Z,47.30
2022-09-05T14:12:12.739Z,43.20
2022-09-05T14:17:58.385Z,45.30
2022-09-05T14:20:49.732Z,44.20
2022-09-05T14:23:21.439Z,42.90
2022-09-05T14:25:54.575Z,42.60
2022-09-05T14:28:28.828Z,42.50
2022-09-05T14:34:05.764Z,42.80
2022-09-05T14:37:49.518Z,42.70
2022-09-05T14:37:54.599Z,42.90
2022-09-05T14:40:43.972Z,42.40
2022-09-05T14:43:42.494Z,42.30
2022-09-05T14:46:45.197Z,42.30
2022-09-05T14:49:28.963Z,41.80
2022-09-05T14:51:58.479Z,42.80
2022-09-05T15:00:22.828Z,43.50
2022-09-05T15:02:53.199Z,42.80
2022-09-05T15:03:05.582Z,44.30
2022-09-05T15:05:46.586Z,44.70
2022-09-05T15:09:04.347Z,42.80
2022-09-05T15:12:20.853Z,44.30
2022-09-05T15:14:03.632Z,44.00
2022-09-05T15:16:35.440Z,43.10
2022-09-05T15:19:05.696Z,44.00
2022-09-05T15:21:38.033Z,43.30
2022-09-05T15:24:22.830Z,43.90
2022-09-05T15:26:53.795Z,43.80
2022-09-05T15:29:24.912Z,42.70
2022-09-05T15:31:59.009Z,43.20
2022-09-05T15:34:40.548Z,43.90
2022-09-05T15:37:28.196Z,43.90
2022-09-05T15:40:22.482Z,44.80
2022-09-05T15:42:55.066Z,45.30
2022-09-05T15:45:28.251Z,47.00
2022-09-05T15:48:18.351Z,47.80
2022-09-05T15:50:51.265Z,46.90
2022-09-05T15:53:25.449Z,47.10
2022-09-05T15:56:00.204Z,48.20
2022-09-05T15:58:52.778Z,46.20
2022-09-05T16:01:46.435Z,46.30
2022-09-05T16:08:23.714Z,46.80
2022-09-05T16:10:33.924Z,46.80
2022-09-05T16:10:49.375Z,47.40
2022-09-05T16:12:46.161Z,49.30
2022-09-05T16:17:37.749Z,49.00
2022-09-05T16:23:13.820Z,48.90
2022-09-05T16:23:25.121Z,48.30
2022-09-05T16:24:04.176Z,48.70
2022-09-05T16:26:38.079Z,48.50
2022-09-05T16:29:14.074Z,49.70
2022-09-05T16:31:49.461Z,48.90
2022-09-05T16:34:24.541Z,47.80
2022-09-05T16:37:08.189Z,47.60
2022-09-05T16:39:42.244Z,48.60
2022-09-05T16:42:18.608Z,48.90
2022-09-05T16:44:51.998Z,48.00
2022-09-05T16:47:25.608Z,48.30
2022-09-05T16:50:00.161Z,47.70
2022-09-05T16:52:36.039Z,48.10
2022-09-05T16:55:12.757Z,48.70
2022-09-05T16:57:44.194Z,52.30
2022-09-05T17:00:16.955Z,53.00
2022-09-05T17:02:53.068Z,54.40
2022-09-05T17:05:31.521Z,55.10
2022-09-05T17:08:07.106Z,55.40
2022-09-05T17:10:49.362Z,56.50
2022-09-05T17:13:39.300Z,60.00
2022-09-05T17:16:10.494Z,61.60
2022-09-05T17:18:40.024Z,61.60
2022-09-05T17:21:11.620Z,62.30
2022-09-05T17:29:15.518Z,62.80
2022-09-05T17:29:33.946Z,64.30
2022-09-05T17:32:40.382Z,63.90
2022-09-05T17:35:18.457Z,65.90
2022-09-05T17:38:15.390Z,66.70
2022-09-05T17:41:00.434Z,66.90
2022-09-05T17:43:33.065Z,67.00
2022-09-05T17:46:16.896Z,68.00
2022-09-05T17:49:19.988Z,69.00
2022-09-05T17:52:27.433Z,69.80
2022-09-05T17:54:56.740Z,69.80
2022-09-05T17:57:42.237Z,70.00
2022-09-05T18:00:49.408Z,70.30
2022-09-05T18:04:16.916Z,70.80
2022-09-05T18:06:59.917Z,71.10
2022-09-05T18:09:58.926Z,71.90
2022-09-05T18:13:12.785Z,72.80
2022-09-05T18:16:03.298Z,73.10
2022-09-05T18:19:28.517Z,74.10
2022-09-05T18:21:26.194Z,73.60
2022-09-05T18:24:05.049Z,74.00
2022-09-05T18:26:41.678Z,75.10
2022-09-05T18:29:57.129Z,75.40
2022-09-05T18:32:13.234Z,75.20
2022-09-05T18:34:46.144Z,75.90
2022-09-05T18:37:59.292Z,76.60
2022-09-05T18:40:45.830Z,78.20
2022-09-05T18:43:24.271Z,78.80
2022-09-05T18:45:54.239Z,78.40
2022-09-05T18:48:29.681Z,78.90
2022-09-05T18:51:15.134Z,79.80
2022-09-05T18:53:47.436Z,80.10
2022-09-05T18:56:39.435Z,81.10
2022-09-05T18:59:24.176Z,82.50
2022-09-05T19:01:57.861Z,82.10
2022-09-05T19:04:39.632Z,83.00
2022-09-05T19:07:12.745Z,83.50
2022-09-05T19:09:58.300Z,83.90
2022-09-05T19:12:33.149Z,84.60
2022-09-05T19:15:08.211Z,85.20
2022-09-05T19:17:39.319Z,86.40
2022-09-05T19:20:32.535Z,86.90
2022-09-05T19:23:11.703Z,87.80
2022-09-05T19:25:43.384Z,88.20
2022-09-05T19:36:44.288Z,88.90
2022-09-05T19:36:49.361Z,89.80
2022-09-05T19:37:05.476Z,90.10
2022-09-05T19:37:30.076Z,90.80
2022-09-05T19:44:31.142Z,90.70
2022-09-05T19:47:35.917Z,90.70
2022-09-05T19:47:44.520Z,90.90
2022-09-05T19:50:56.885Z,91.90
2022-09-05T19:53:25.906Z,91.90
2022-09-05T19:55:54.679Z,92.00
2022-09-05T19:58:24.256Z,92.60
2022-09-05T20:01:04.846Z,92.80
2022-09-05T20:03:39.536Z,93.40
2022-09-05T20:06:29.828Z,93.40
2022-09-05T20:09:16.242Z,94.00
2022-09-05T20:11:49.362Z,94.20
2022-09-05T20:14:23.214Z,94.60
2022-09-05T20:16:54.836Z,95.00
2022-09-05T20:19:40.979Z,95.20
2022-09-05T20:22:47.347Z,95.80
2022-09-05T20:25:03.687Z,95.90
2022-09-05T20:27:31.846Z,96.00
2022-09-05T20:30:03.149Z,96.30
2022-09-05T20:32:45.062Z,96.80
2022-09-05T20:41:11.620Z,97.30
2022-09-05T20:43:09.844Z,97.90
2022-09-05T20:43:18.013Z,98.10
2022-09-05T20:44:22.614Z,98.60
2022-09-05T20:52:51.757Z,99.40
2022-09-05T20:54:12.575Z,99.50
2022-09-05T20:54:27.835Z,99.90
2022-09-05T20:55:38.672Z,99.90
2022-09-05T20:58:11.831Z,99.90
2022-09-05T21:01:19.778Z,99.90
2022-09-05T21:03:37.869Z,99.90
2022-09-05T21:06:23.537Z,99.90
2022-09-05T21:08:54.734Z,99.90
2022-09-05T21:11:31.761Z,99.90
2022-09-05T21:14:03.429Z,99.90
2022-09-05T21:16:34.163Z,99.90
2022-09-05T21:19:02.719Z,99.90
2022-09-05T21:21:34.739Z,99.90
2022-09-05T21:24:17.186Z,99.90
2022-09-05T21:26:48.662Z,99.90
2022-09-05T21:29:25.562Z,99.90
2022-09-05T21:32:02.350Z,99.90
2022-09-05T21:34:35.385Z,99.90
2022-09-05T21:37:07.644Z,99.90
2022-09-05T21:39:40.145Z,99.90
2022-09-05T21:43:08.616Z,99.90
2022-09-05T21:47:49.622Z,99.90
2022-09-05T21:47:53.810Z,99.90
2022-09-05T21:50:31.585Z,99.90
2022-09-05T21:53:46.927Z,99.90
2022-09-05T21:59:27.216Z,99.90
2022-09-05T21:59:27.856Z,99.90
2022-09-05T22:01:51.863Z,99.90
2022-09-05T22:04:22.060Z,99.90
2022-09-05T22:06:53.012Z,99.90
2022-09-05T22:09:23.694Z,99.90
2022-09-05T22:11:52.519Z,99.90
2022-09-05T22:14:22.347Z,99.90
2022-09-05T22:16:51.742Z,99.90
2022-09-05T22:19:37.271Z,99.90
2022-09-05T22:22:15.867Z,99.90
2022-09-05T22:24:51.668Z,99.90
2022-09-05T22:27:22.695Z,99.90
2022-09-05T22:29:51.852Z,99.90
2022-09-05T22:32:34.490Z,99.90
2022-09-05T22:35:27.674Z,99.90
2022-09-05T22:38:10.398Z,99.90
2022-09-05T22:40:41.949Z,99.90
2022-09-05T22:43:11.581Z,99.90
2022-09-05T22:45:41.457Z,99.90
2022-09-05T22:48:12.521Z,99.90
2022-09-05T22:50:41.984Z,99.90
2022-09-05T22:53:10.977Z,99.90
2022-09-05T22:55:44.112Z,99.90
2022-09-05T22:58:14.319Z,99.90
2022-09-05T23:00:44.617Z,99.90
2022-09-05T23:03:12.921Z,99.90
2022-09-05T23:05:41.113Z,99.90
2022-09-05T23:08:10.124Z,99.90
2022-09-05T23:10:38.781Z,99.90
2022-09-05T23:13:09.954Z,99.90
2022-09-05T23:15:39.163Z,99.90
2022-09-05T23:18:07.461Z,99.90
2022-09-05T23:20:36.947Z,99.90
2022-09-05T23:23:07.166Z,99.90
2022-09-05T23:25:36.427Z,99.90
2022-09-05T23:28:08.590Z,99.90
2022-09-05T23:30:37.584Z,99.90
2022-09-05T23:33:07.447Z,99.90
2022-09-05T23:35:35.893Z,99.90
2022-09-05T23:38:04.410Z,99.90
2022-09-05T23:40:32.607Z,99.90
2022-09-05T23:43:02.156Z,99.90
2022-09-05T23:45:32.199Z,99.90
2022-09-05T23:48:01.127Z,99.90
2022-09-05T23:50:30.229Z,99.90
2022-09-05T23:53:03.453Z,99.90
2022-09-05T23:55:32.734Z,99.90
2022-09-05T23:58:01.265Z,99.90
